CYLW/YLW METAR and TAF weather

Enter ICAO airport designator
Station Type Date Time Source
CYLW METAR 2019/10/16 20:00 UTC NOAA

CYLW 162000Z AUTO 14004KT 110V220 9SM CLR 12/05 A2975 RMK SLP082 DENSITY ALT 1600FT


Station Type Date Time Source
CYLW Decoded METAR 2019/10/16 20:00 UTC NOAA

Kelowna Airport, Canada (CYLW) 49-58N 119-23W 430M
Oct 16, 2019 - 04:00 PM EDT / 2019.10.16 2000 UTC
Wind: from the SE (140 degrees) at 5 MPH (4 KT) (direction variable):0
Visibility: 9 mile(s):0
Sky conditions: clear
Temperature: 53 F (12 C)
Dew Point: 41 F (5 C)
Relative Humidity: 62%
Pressure (altimeter): 29.75 in. Hg (1007 hPa)
ob: CYLW 162000Z AUTO 14004KT 110V220 9SM CLR 12/05 A2975 RMK SLP082 DENSITY ALT 1600FT
cycle: 20

Station Type Date Time Source
CYLW TAF 2019/10/16 19:42 UTC NOAA

TAF CYLW 161838Z 1619/1707 VRB03KT P6SM BKN140
FM162200 21012KT P6SM BKN080
TEMPO 1622/1707 P6SM -SHRA BKN060
RMK FCST BASED ON AUTO OBS. NXT FCST BY 170100Z

Example: see airport list